sensor_id;sensor_type;location;lat;lon;timestamp;temperature;humidity
9925;DHT22;5001;51.674;7.868;2023-11-21T00:00:16;7.90;99.90
9925;DHT22;5001;51.674;7.868;2023-11-21T00:02:44;7.80;99.90
9925;DHT22;5001;51.674;7.868;2023-11-21T00:05:14;7.90;99.90
9925;DHT22;5001;51.674;7.868;2023-11-21T00:07:41;8.00;99.90
9925;DHT22;5001;51.674;7.868;2023-11-21T00:10:10;8.00;99.90
9925;DHT22;5001;51.674;7.868;2023-11-21T00:12:38;7.90;99.90
9925;DHT22;5001;51.674;7.868;2023-11-21T00:15:05;8.00;99.90
9925;DHT22;5001;51.674;7.868;2023-11-21T00:17:32;8.00;99.90
9925;DHT22;5001;51.674;7.868;2023-11-21T00:19:59;8.00;99.90
9925;DHT22;5001;51.674;7.868;2023-11-21T00:22:26;8.10;99.90
9925;DHT22;5001;51.674;7.868;2023-11-21T00:24:53;8.10;99.90
9925;DHT22;5001;51.674;7.868;2023-11-21T00:27:20;8.10;99.90
9925;DHT22;5001;51.674;7.868;2023-11-21T00:29:48;8.10;99.90
9925;DHT22;5001;51.674;7.868;2023-11-21T00:32:15;8.10;99.90
9925;DHT22;5001;51.674;7.868;2023-11-21T00:34:42;8.10;99.90
9925;DHT22;5001;51.674;7.868;2023-11-21T00:37:09;8.10;99.90
9925;DHT22;5001;51.674;7.868;2023-11-21T00:39:36;8.10;99.90
9925;DHT22;5001;51.674;7.868;2023-11-21T00:42:03;8.20;99.90
9925;DHT22;5001;51.674;7.868;2023-11-21T00:44:31;8.20;99.90
9925;DHT22;5001;51.674;7.868;2023-11-21T00:46:58;8.20;99.90
9925;DHT22;5001;51.674;7.868;2023-11-21T00:49:25;8.10;99.90
9925;DHT22;5001;51.674;7.868;2023-11-21T00:51:52;8.10;99.90
9925;DHT22;5001;51.674;7.868;2023-11-21T00:54:19;8.00;99.90
9925;DHT22;5001;51.674;7.868;2023-11-21T00:56:46;8.10;99.90
9925;DHT22;5001;51.674;7.868;2023-11-21T00:59:16;8.00;99.90
9925;DHT22;5001;51.674;7.868;2023-11-21T01:01:44;7.90;99.90
9925;DHT22;5001;51.674;7.868;2023-11-21T01:04:11;7.90;99.90
9925;DHT22;5001;51.674;7.868;2023-11-21T01:06:38;7.90;99.90
9925;DHT22;5001;51.674;7.868;2023-11-21T01:09:05;7.90;99.90
9925;DHT22;5001;51.674;7.868;2023-11-21T01:11:35;8.00;99.90
9925;DHT22;5001;51.674;7.868;2023-11-21T01:14:04;8.00;99.90
9925;DHT22;5001;51.674;7.868;2023-11-21T01:16:31;8.00;99.90
9925;DHT22;5001;51.674;7.868;2023-11-21T01:19:03;8.00;99.90
9925;DHT22;5001;51.674;7.868;2023-11-21T01:21:32;8.00;99.90
9925;DHT22;5001;51.674;7.868;2023-11-21T01:23:58;8.00;99.90
9925;DHT22;5001;51.674;7.868;2023-11-21T01:26:25;7.90;99.90
9925;DHT22;5001;51.674;7.868;2023-11-21T01:28:52;7.80;99.90
9925;DHT22;5001;51.674;7.868;2023-11-21T01:31:19;7.80;1.00
9925;DHT22;5001;51.674;7.868;2023-11-21T01:33:47;7.70;1.00
9925;DHT22;5001;51.674;7.868;2023-11-21T01:36:15;7.70;1.00
9925;DHT22;5001;51.674;7.868;2023-11-21T01:38:44;7.80;1.00
9925;DHT22;5001;51.674;7.868;2023-11-21T01:41:12;7.80;1.00
9925;DHT22;5001;51.674;7.868;2023-11-21T01:43:41;7.80;1.00
9925;DHT22;5001;51.674;7.868;2023-11-21T01:46:09;7.80;1.00
9925;DHT22;5001;51.674;7.868;2023-11-21T01:48:36;7.80;1.00
9925;DHT22;5001;51.674;7.868;2023-11-21T01:51:05;7.70;1.00
9925;DHT22;5001;51.674;7.868;2023-11-21T01:53:32;7.60;1.00
9925;DHT22;5001;51.674;7.868;2023-11-21T01:56:00;7.60;1.00
9925;DHT22;5001;51.674;7.868;2023-11-21T01:58:27;7.50;1.00
9925;DHT22;5001;51.674;7.868;2023-11-21T02:00:54;7.50;1.00
9925;DHT22;5001;51.674;7.868;2023-11-21T02:03:21;7.50;1.00
9925;DHT22;5001;51.674;7.868;2023-11-21T02:05:49;7.50;1.00
9925;DHT22;5001;51.674;7.868;2023-11-21T02:08:16;7.50;1.00
9925;DHT22;5001;51.674;7.868;2023-11-21T02:10:43;7.60;1.00
9925;DHT22;5001;51.674;7.868;2023-11-21T02:13:10;7.60;1.00
9925;DHT22;5001;51.674;7.868;2023-11-21T02:15:38;7.60;1.00
9925;DHT22;5001;51.674;7.868;2023-11-21T02:18:05;7.70;1.00
9925;DHT22;5001;51.674;7.868;2023-11-21T02:20:33;7.70;1.00
9925;DHT22;5001;51.674;7.868;2023-11-21T02:23:03;7.70;1.00
9925;DHT22;5001;51.674;7.868;2023-11-21T02:25:33;7.70;1.00
9925;DHT22;5001;51.674;7.868;2023-11-21T02:28:02;7.70;1.00
9925;DHT22;5001;51.674;7.868;2023-11-21T02:30:30;7.70;1.00
9925;DHT22;5001;51.674;7.868;2023-11-21T02:33:00;7.70;1.00
9925;DHT22;5001;51.674;7.868;2023-11-21T02:35:29;7.70;1.00
9925;DHT22;5001;51.674;7.868;2023-11-21T02:38:00;7.70;1.00
9925;DHT22;5001;51.674;7.868;2023-11-21T02:40:27;7.70;1.00
9925;DHT22;5001;51.674;7.868;2023-11-21T02:42:57;7.80;1.00
9925;DHT22;5001;51.674;7.868;2023-11-21T02:45:26;7.80;1.00
9925;DHT22;5001;51.674;7.868;2023-11-21T02:47:53;7.80;1.00
9925;DHT22;5001;51.674;7.868;2023-11-21T02:50:22;7.80;1.00
9925;DHT22;5001;51.674;7.868;2023-11-21T02:52:50;7.80;1.00
9925;DHT22;5001;51.674;7.868;2023-11-21T02:55:19;7.80;1.00
9925;DHT22;5001;51.674;7.868;2023-11-21T02:57:46;7.80;1.00
9925;DHT22;5001;51.674;7.868;2023-11-21T03:00:13;7.80;1.00
9925;DHT22;5001;51.674;7.868;2023-11-21T03:06:23;7.70;1.00
9925;DHT22;5001;51.674;7.868;2023-11-21T03:08:50;7.80;1.00
9925;DHT22;5001;51.674;7.868;2023-11-21T03:11:17;7.80;1.00
9925;DHT22;5001;51.674;7.868;2023-11-21T03:13:44;7.90;1.00
9925;DHT22;5001;51.674;7.868;2023-11-21T03:16:12;7.90;1.00
9925;DHT22;5001;51.674;7.868;2023-11-21T03:18:39;7.90;1.00
9925;DHT22;5001;51.674;7.868;2023-11-21T03:21:07;7.80;1.00
9925;DHT22;5001;51.674;7.868;2023-11-21T03:23:37;7.90;1.00
9925;DHT22;5001;51.674;7.868;2023-11-21T03:26:04;7.90;1.00
9925;DHT22;5001;51.674;7.868;2023-11-21T03:28:32;7.90;1.00
9925;DHT22;5001;51.674;7.868;2023-11-21T03:30:59;7.90;1.00
9925;DHT22;5001;51.674;7.868;2023-11-21T03:33:26;7.90;1.00
9925;DHT22;5001;51.674;7.868;2023-11-21T03:35:53;7.90;1.00
9925;DHT22;5001;51.674;7.868;2023-11-21T03:38:20;8.00;1.00
9925;DHT22;5001;51.674;7.868;2023-11-21T03:40:47;8.00;1.00
9925;DHT22;5001;51.674;7.868;2023-11-21T03:43:14;8.00;1.00
9925;DHT22;5001;51.674;7.868;2023-11-21T03:45:42;8.00;1.00
9925;DHT22;5001;51.674;7.868;2023-11-21T03:48:09;8.10;1.00
9925;DHT22;5001;51.674;7.868;2023-11-21T03:50:39;8.10;1.00
9925;DHT22;5001;51.674;7.868;2023-11-21T03:53:06;8.10;1.00
9925;DHT22;5001;51.674;7.868;2023-11-21T03:55:32;8.10;1.00
9925;DHT22;5001;51.674;7.868;2023-11-21T03:58:00;8.10;1.00
9925;DHT22;5001;51.674;7.868;2023-11-21T04:00:28;8.10;1.00
9925;DHT22;5001;51.674;7.868;2023-11-21T04:02:54;8.10;1.00
9925;DHT22;5001;51.674;7.868;2023-11-21T04:05:22;8.20;1.00
9925;DHT22;5001;51.674;7.868;2023-11-21T04:07:50;8.20;1.00
9925;DHT22;5001;51.674;7.868;2023-11-21T04:10:20;8.20;1.00
9925;DHT22;5001;51.674;7.868;2023-11-21T04:12:48;8.20;1.00
9925;DHT22;5001;51.674;7.868;2023-11-21T04:15:15;8.20;1.00
9925;DHT22;5001;51.674;7.868;2023-11-21T04:17:42;8.20;1.00
9925;DHT22;5001;51.674;7.868;2023-11-21T04:20:09;8.20;1.00
9925;DHT22;5001;51.674;7.868;2023-11-21T04:22:42;8.20;1.00
9925;DHT22;5001;51.674;7.868;2023-11-21T04:25:13;8.20;1.00
9925;DHT22;5001;51.674;7.868;2023-11-21T04:27:40;8.10;1.00
9925;DHT22;5001;51.674;7.868;2023-11-21T04:30:14;8.10;1.00
9925;DHT22;5001;51.674;7.868;2023-11-21T04:32:41;8.10;1.00
9925;DHT22;5001;51.674;7.868;2023-11-21T04:35:08;8.00;1.00
9925;DHT22;5001;51.674;7.868;2023-11-21T04:37:36;8.00;1.00
9925;DHT22;5001;51.674;7.868;2023-11-21T04:40:04;8.10;1.00
9925;DHT22;5001;51.674;7.868;2023-11-21T04:42:37;8.10;1.00
9925;DHT22;5001;51.674;7.868;2023-11-21T04:45:05;8.10;1.00
9925;DHT22;5001;51.674;7.868;2023-11-21T04:47:36;8.10;1.00
9925;DHT22;5001;51.674;7.868;2023-11-21T04:50:03;8.10;1.00
9925;DHT22;5001;51.674;7.868;2023-11-21T04:52:30;8.10;1.00
9925;DHT22;5001;51.674;7.868;2023-11-21T04:54:58;8.10;1.00
9925;DHT22;5001;51.674;7.868;2023-11-21T04:57:25;8.10;1.00
9925;DHT22;5001;51.674;7.868;2023-11-21T04:59:52;8.10;1.00
9925;DHT22;5001;51.674;7.868;2023-11-21T05:02:19;8.10;1.00
9925;DHT22;5001;51.674;7.868;2023-11-21T05:05:01;8.00;1.00
9925;DHT22;5001;51.674;7.868;2023-11-21T05:07:29;8.10;1.00
9925;DHT22;5001;51.674;7.868;2023-11-21T05:09:58;8.10;1.00
9925;DHT22;5001;51.674;7.868;2023-11-21T05:12:25;8.00;1.00
9925;DHT22;5001;51.674;7.868;2023-11-21T05:14:52;8.00;1.00
9925;DHT22;5001;51.674;7.868;2023-11-21T05:17:19;8.00;1.00
9925;DHT22;5001;51.674;7.868;2023-11-21T05:19:46;7.90;1.00
9925;DHT22;5001;51.674;7.868;2023-11-21T05:22:16;7.90;1.00
9925;DHT22;5001;51.674;7.868;2023-11-21T05:24:43;7.90;1.00
9925;DHT22;5001;51.674;7.868;2023-11-21T05:27:10;7.90;1.00
9925;DHT22;5001;51.674;7.868;2023-11-21T05:29:37;7.90;1.00
9925;DHT22;5001;51.674;7.868;2023-11-21T05:32:06;7.90;1.00
9925;DHT22;5001;51.674;7.868;2023-11-21T05:34:34;8.00;1.00
9925;DHT22;5001;51.674;7.868;2023-11-21T05:37:00;8.00;1.00
9925;DHT22;5001;51.674;7.868;2023-11-21T05:39:27;8.00;1.00
9925;DHT22;5001;51.674;7.868;2023-11-21T05:41:54;8.00;1.00
9925;DHT22;5001;51.674;7.868;2023-11-21T05:44:22;8.00;1.00
9925;DHT22;5001;51.674;7.868;2023-11-21T05:46:50;8.00;1.00
9925;DHT22;5001;51.674;7.868;2023-11-21T05:49:17;8.00;1.00
9925;DHT22;5001;51.674;7.868;2023-11-21T05:51:48;8.10;1.00
9925;DHT22;5001;51.674;7.868;2023-11-21T05:54:15;8.10;1.00
9925;DHT22;5001;51.674;7.868;2023-11-21T05:56:42;8.10;1.00
9925;DHT22;5001;51.674;7.868;2023-11-21T05:59:09;8.10;1.00
9925;DHT22;5001;51.674;7.868;2023-11-21T06:01:36;8.10;1.00
9925;DHT22;5001;51.674;7.868;2023-11-21T06:04:05;8.10;1.00
9925;DHT22;5001;51.674;7.868;2023-11-21T06:06:35;8.10;1.00
9925;DHT22;5001;51.674;7.868;2023-11-21T06:09:02;8.10;1.00
9925;DHT22;5001;51.674;7.868;2023-11-21T06:11:29;8.10;1.00
9925;DHT22;5001;51.674;7.868;2023-11-21T06:13:56;8.20;1.00
9925;DHT22;5001;51.674;7.868;2023-11-21T06:16:23;8.20;1.00
9925;DHT22;5001;51.674;7.868;2023-11-21T06:18:51;8.20;1.00
9925;DHT22;5001;51.674;7.868;2023-11-21T06:21:18;8.20;1.00
9925;DHT22;5001;51.674;7.868;2023-11-21T06:23:45;8.20;1.00
9925;DHT22;5001;51.674;7.868;2023-11-21T06:26:12;8.20;1.00
9925;DHT22;5001;51.674;7.868;2023-11-21T06:28:39;8.20;1.00
9925;DHT22;5001;51.674;7.868;2023-11-21T06:31:06;8.20;1.00
9925;DHT22;5001;51.674;7.868;2023-11-21T06:33:34;8.30;1.00
9925;DHT22;5001;51.674;7.868;2023-11-21T06:36:01;8.30;1.00
9925;DHT22;5001;51.674;7.868;2023-11-21T06:38:31;8.30;1.00
9925;DHT22;5001;51.674;7.868;2023-11-21T06:40:59;8.30;1.00
9925;DHT22;5001;51.674;7.868;2023-11-21T06:43:28;8.30;1.00
9925;DHT22;5001;51.674;7.868;2023-11-21T06:45:56;8.30;1.00
9925;DHT22;5001;51.674;7.868;2023-11-21T06:48:23;8.40;1.00
9925;DHT22;5001;51.674;7.868;2023-11-21T06:50:50;8.40;1.00
9925;DHT22;5001;51.674;7.868;2023-11-21T06:53:18;8.40;1.00
9925;DHT22;5001;51.674;7.868;2023-11-21T06:55:46;8.40;1.00
9925;DHT22;5001;51.674;7.868;2023-11-21T06:58:13;8.40;1.00
9925;DHT22;5001;51.674;7.868;2023-11-21T07:00:41;8.40;1.00
9925;DHT22;5001;51.674;7.868;2023-11-21T07:03:13;8.40;1.00
9925;DHT22;5001;51.674;7.868;2023-11-21T07:05:40;8.50;1.00
9925;DHT22;5001;51.674;7.868;2023-11-21T07:08:07;8.50;1.00
9925;DHT22;5001;51.674;7.868;2023-11-21T07:10:35;8.50;1.00
9925;DHT22;5001;51.674;7.868;2023-11-21T07:13:03;8.50;1.00
9925;DHT22;5001;51.674;7.868;2023-11-21T07:15:30;8.50;1.00
9925;DHT22;5001;51.674;7.868;2023-11-21T07:17:57;8.50;1.00
9925;DHT22;5001;51.674;7.868;2023-11-21T07:20:25;8.60;1.00
9925;DHT22;5001;51.674;7.868;2023-11-21T07:22:52;8.60;1.00
9925;DHT22;5001;51.674;7.868;2023-11-21T07:25:19;8.60;1.00
9925;DHT22;5001;51.674;7.868;2023-11-21T07:27:46;8.60;1.00
9925;DHT22;5001;51.674;7.868;2023-11-21T07:30:13;8.60;1.00
9925;DHT22;5001;51.674;7.868;2023-11-21T07:32:40;8.60;1.00
9925;DHT22;5001;51.674;7.868;2023-11-21T07:35:08;8.70;1.00
9925;DHT22;5001;51.674;7.868;2023-11-21T07:37:35;8.60;1.00
9925;DHT22;5001;51.674;7.868;2023-11-21T07:40:02;8.70;1.00
9925;DHT22;5001;51.674;7.868;2023-11-21T07:42:29;8.70;1.00
9925;DHT22;5001;51.674;7.868;2023-11-21T07:44:57;8.70;1.00
9925;DHT22;5001;51.674;7.868;2023-11-21T07:47:24;8.70;1.00
9925;DHT22;5001;51.674;7.868;2023-11-21T07:49:54;8.70;1.00
9925;DHT22;5001;51.674;7.868;2023-11-21T07:52:23;8.80;1.00
9925;DHT22;5001;51.674;7.868;2023-11-21T07:54:50;8.80;1.00
9925;DHT22;5001;51.674;7.868;2023-11-21T07:57:17;8.80;1.00
9925;DHT22;5001;51.674;7.868;2023-11-21T07:59:44;8.80;1.00
9925;DHT22;5001;51.674;7.868;2023-11-21T08:02:11;8.90;1.00
9925;DHT22;5001;51.674;7.868;2023-11-21T08:04:38;8.90;1.00
9925;DHT22;5001;51.674;7.868;2023-11-21T08:07:05;9.00;1.00
9925;DHT22;5001;51.674;7.868;2023-11-21T08:09:32;9.00;1.00
9925;DHT22;5001;51.674;7.868;2023-11-21T08:12:02;9.00;1.00
9925;DHT22;5001;51.674;7.868;2023-11-21T08:14:30;9.10;1.00
9925;DHT22;5001;51.674;7.868;2023-11-21T08:16:56;9.10;1.00
9925;DHT22;5001;51.674;7.868;2023-11-21T08:19:24;9.20;1.00
9925;DHT22;5001;51.674;7.868;2023-11-21T08:21:52;9.30;1.00
9925;DHT22;5001;51.674;7.868;2023-11-21T08:24:22;9.30;1.00
9925;DHT22;5001;51.674;7.868;2023-11-21T08:26:48;9.30;1.00
9925;DHT22;5001;51.674;7.868;2023-11-21T08:29:16;9.30;1.00
9925;DHT22;5001;51.674;7.868;2023-11-21T08:31:44;9.30;99.90
9925;DHT22;5001;51.674;7.868;2023-11-21T08:34:13;9.40;99.90
9925;DHT22;5001;51.674;7.868;2023-11-21T08:36:44;9.40;99.90
9925;DHT22;5001;51.674;7.868;2023-11-21T08:39:12;9.40;99.90
9925;DHT22;5001;51.674;7.868;2023-11-21T08:41:40;9.30;99.90
9925;DHT22;5001;51.674;7.868;2023-11-21T08:44:08;9.30;99.90
9925;DHT22;5001;51.674;7.868;2023-11-21T08:46:35;9.30;99.90
9925;DHT22;5001;51.674;7.868;2023-11-21T08:49:03;9.20;99.90
9925;DHT22;5001;51.674;7.868;2023-11-21T08:51:30;9.30;99.90
9925;DHT22;5001;51.674;7.868;2023-11-21T08:53:58;9.40;99.90
9925;DHT22;5001;51.674;7.868;2023-11-21T08:56:27;9.40;99.90
9925;DHT22;5001;51.674;7.868;2023-11-21T08:58:54;9.40;99.90
9925;DHT22;5001;51.674;7.868;2023-11-21T09:01:21;9.40;99.90
9925;DHT22;5001;51.674;7.868;2023-11-21T09:03:48;9.40;99.90
9925;DHT22;5001;51.674;7.868;2023-11-21T09:06:16;9.50;99.90
9925;DHT22;5001;51.674;7.868;2023-11-21T09:08:43;9.50;99.90
9925;DHT22;5001;51.674;7.868;2023-11-21T09:11:10;9.40;99.90
9925;DHT22;5001;51.674;7.868;2023-11-21T09:13:37;9.50;99.90
9925;DHT22;5001;51.674;7.868;2023-11-21T09:16:05;9.50;99.90
9925;DHT22;5001;51.674;7.868;2023-11-21T09:18:32;9.50;99.90
9925;DHT22;5001;51.674;7.868;2023-11-21T09:20:59;9.50;99.90
9925;DHT22;5001;51.674;7.868;2023-11-21T09:23:26;9.50;99.90
9925;DHT22;5001;51.674;7.868;2023-11-21T09:25:53;9.50;99.90
9925;DHT22;5001;51.674;7.868;2023-11-21T09:28:23;9.50;99.90
9925;DHT22;5001;51.674;7.868;2023-11-21T09:30:50;9.50;99.90
9925;DHT22;5001;51.674;7.868;2023-11-21T09:33:17;9.40;99.90
9925;DHT22;5001;51.674;7.868;2023-11-21T09:35:44;9.40;99.90
9925;DHT22;5001;51.674;7.868;2023-11-21T09:38:11;9.40;99.90
9925;DHT22;5001;51.674;7.868;2023-11-21T09:40:38;9.40;99.90
9925;DHT22;5001;51.674;7.868;2023-11-21T09:43:08;9.40;99.90
9925;DHT22;5001;51.674;7.868;2023-11-21T09:45:47;9.30;99.90
9925;DHT22;5001;51.674;7.868;2023-11-21T09:48:15;9.30;99.90
9925;DHT22;5001;51.674;7.868;2023-11-21T09:50:43;9.30;99.90
9925;DHT22;5001;51.674;7.868;2023-11-21T09:53:18;9.40;99.90
9925;DHT22;5001;51.674;7.868;2023-11-21T09:55:49;9.40;99.90
9925;DHT22;5001;51.674;7.868;2023-11-21T09:58:19;9.40;99.90
9925;DHT22;5001;51.674;7.868;2023-11-21T10:00:47;9.50;99.90
9925;DHT22;5001;51.674;7.868;2023-11-21T10:03:15;9.60;99.90
9925;DHT22;5001;51.674;7.868;2023-11-21T10:05:43;9.60;99.90
9925;DHT22;5001;51.674;7.868;2023-11-21T10:08:12;9.60;99.90
9925;DHT22;5001;51.674;7.868;2023-11-21T10:10:43;9.60;99.90
9925;DHT22;5001;51.674;7.868;2023-11-21T10:13:15;9.60;99.90
9925;DHT22;5001;51.674;7.868;2023-11-21T10:15:49;9.70;99.90
9925;DHT22;5001;51.674;7.868;2023-11-21T10:18:17;9.70;99.90
9925;DHT22;5001;51.674;7.868;2023-11-21T10:20:45;9.70;99.90
9925;DHT22;5001;51.674;7.868;2023-11-21T10:23:21;9.70;99.90
9925;DHT22;5001;51.674;7.868;2023-11-21T10:25:50;9.70;99.90
9925;DHT22;5001;51.674;7.868;2023-11-21T10:28:19;9.80;99.90
9925;DHT22;5001;51.674;7.868;2023-11-21T10:30:47;9.90;99.90
9925;DHT22;5001;51.674;7.868;2023-11-21T10:33:14;9.90;99.90
9925;DHT22;5001;51.674;7.868;2023-11-21T10:38:08;10.00;99.90
9925;DHT22;5001;51.674;7.868;2023-11-21T10:40:40;10.00;99.90
9925;DHT22;5001;51.674;7.868;2023-11-21T10:43:09;10.00;99.90
9925;DHT22;5001;51.674;7.868;2023-11-21T10:45:40;10.00;99.90
9925;DHT22;5001;51.674;7.868;2023-11-21T10:48:12;9.90;99.90
9925;DHT22;5001;51.674;7.868;2023-11-21T10:50:46;9.90;99.90
9925;DHT22;5001;51.674;7.868;2023-11-21T10:53:14;9.80;99.90
9925;DHT22;5001;51.674;7.868;2023-11-21T10:55:42;9.80;99.90
9925;DHT22;5001;51.674;7.868;2023-11-21T10:58:13;9.80;99.90
9925;DHT22;5001;51.674;7.868;2023-11-21T11:00:40;9.90;99.90
9925;DHT22;5001;51.674;7.868;2023-11-21T11:03:08;9.90;99.90
9925;DHT22;5001;51.674;7.868;2023-11-21T11:05:44;10.00;99.90
9925;DHT22;5001;51.674;7.868;2023-11-21T11:08:21;10.00;99.90
9925;DHT22;5001;51.674;7.868;2023-11-21T11:10:54;10.00;99.90
9925;DHT22;5001;51.674;7.868;2023-11-21T11:13:21;10.00;99.90
9925;DHT22;5001;51.674;7.868;2023-11-21T11:15:49;10.00;99.90
9925;DHT22;5001;51.674;7.868;2023-11-21T11:18:17;9.90;99.90
9925;DHT22;5001;51.674;7.868;2023-11-21T11:20:47;9.90;99.90
9925;DHT22;5001;51.674;7.868;2023-11-21T11:28:44;9.70;99.90
9925;DHT22;5001;51.674;7.868;2023-11-21T11:36:47;9.80;99.90
9925;DHT22;5001;51.674;7.868;2023-11-21T11:39:37;9.70;99.90
9925;DHT22;5001;51.674;7.868;2023-11-21T11:42:07;9.60;99.90
9925;DHT22;5001;51.674;7.868;2023-11-21T11:47:23;9.70;99.90
9925;DHT22;5001;51.674;7.868;2023-11-21T11:52:48;9.80;99.90
9925;DHT22;5001;51.674;7.868;2023-11-21T11:55:19;9.70;99.90
9925;DHT22;5001;51.674;7.868;2023-11-21T11:57:47;9.70;99.90
9925;DHT22;5001;51.674;7.868;2023-11-21T12:00:19;9.60;99.90
9925;DHT22;5001;51.674;7.868;2023-11-21T12:02:50;9.50;99.90
9925;DHT22;5001;51.674;7.868;2023-11-21T12:05:20;9.60;99.90
9925;DHT22;5001;51.674;7.868;2023-11-21T12:10:16;9.60;99.90
9925;DHT22;5001;51.674;7.868;2023-11-21T12:12:50;9.60;99.90
9925;DHT22;5001;51.674;7.868;2023-11-21T12:15:19;9.70;99.90
9925;DHT22;5001;51.674;7.868;2023-11-21T12:17:46;9.60;99.90
9925;DHT22;5001;51.674;7.868;2023-11-21T12:20:24;9.50;99.90
9925;DHT22;5001;51.674;7.868;2023-11-21T12:22:53;9.40;99.90
9925;DHT22;5001;51.674;7.868;2023-11-21T12:25:24;9.40;99.90
9925;DHT22;5001;51.674;7.868;2023-11-21T12:27:56;9.30;99.90
9925;DHT22;5001;51.674;7.868;2023-11-21T12:30:33;9.30;99.90
9925;DHT22;5001;51.674;7.868;2023-11-21T12:33:02;9.30;99.90
9925;DHT22;5001;51.674;7.868;2023-11-21T12:35:33;9.40;99.90
9925;DHT22;5001;51.674;7.868;2023-11-21T12:38:02;9.40;99.90
9925;DHT22;5001;51.674;7.868;2023-11-21T12:40:30;9.50;99.90
9925;DHT22;5001;51.674;7.868;2023-11-21T12:42:58;9.40;99.90
9925;DHT22;5001;51.674;7.868;2023-11-21T12:45:29;9.40;99.90
9925;DHT22;5001;51.674;7.868;2023-11-21T12:48:00;9.50;99.90
9925;DHT22;5001;51.674;7.868;2023-11-21T12:50:30;9.50;99.90
9925;DHT22;5001;51.674;7.868;2023-11-21T12:53:03;9.50;99.90
9925;DHT22;5001;51.674;7.868;2023-11-21T12:55:33;9.50;99.90
9925;DHT22;5001;51.674;7.868;2023-11-21T12:58:06;9.40;99.90
9925;DHT22;5001;51.674;7.868;2023-11-21T13:00:40;9.40;99.90
9925;DHT22;5001;51.674;7.868;2023-11-21T13:03:10;9.30;99.90
9925;DHT22;5001;51.674;7.868;2023-11-21T13:05:40;9.30;99.90
9925;DHT22;5001;51.674;7.868;2023-11-21T13:08:15;9.20;99.90
9925;DHT22;5001;51.674;7.868;2023-11-21T13:10:49;9.20;99.90
9925;DHT22;5001;51.674;7.868;2023-11-21T13:13:16;9.20;99.90
9925;DHT22;5001;51.674;7.868;2023-11-21T13:15:52;9.10;99.90
9925;DHT22;5001;51.674;7.868;2023-11-21T13:18:26;9.10;99.90
9925;DHT22;5001;51.674;7.868;2023-11-21T13:20:55;9.10;99.90
9925;DHT22;5001;51.674;7.868;2023-11-21T13:23:24;9.00;99.90
9925;DHT22;5001;51.674;7.868;2023-11-21T13:25:52;9.00;99.90
9925;DHT22;5001;51.674;7.868;2023-11-21T13:28:28;8.90;99.90
9925;DHT22;5001;51.674;7.868;2023-11-21T13:31:01;8.80;99.90
9925;DHT22;5001;51.674;7.868;2023-11-21T13:33:48;8.70;99.90
9925;DHT22;5001;51.674;7.868;2023-11-21T13:36:24;8.70;99.90
9925;DHT22;5001;51.674;7.868;2023-11-21T13:38:55;8.80;1.00
9925;DHT22;5001;51.674;7.868;2023-11-21T13:41:23;8.80;99.90
9925;DHT22;5001;51.674;7.868;2023-11-21T13:43:57;8.70;99.90
9925;DHT22;5001;51.674;7.868;2023-11-21T13:46:43;8.50;99.90
9925;DHT22;5001;51.674;7.868;2023-11-21T13:49:11;8.50;99.90
9925;DHT22;5001;51.674;7.868;2023-11-21T13:51:38;8.50;99.90
9925;DHT22;5001;51.674;7.868;2023-11-21T13:54:11;8.50;99.90
9925;DHT22;5001;51.674;7.868;2023-11-21T13:56:38;8.50;99.90
9925;DHT22;5001;51.674;7.868;2023-11-21T13:59:07;8.60;99.90
9925;DHT22;5001;51.674;7.868;2023-11-21T14:01:55;8.60;99.90
9925;DHT22;5001;51.674;7.868;2023-11-21T14:04:24;8.70;99.90
9925;DHT22;5001;51.674;7.868;2023-11-21T14:06:58;8.50;99.90
9925;DHT22;5001;51.674;7.868;2023-11-21T14:09:28;8.40;99.90
9925;DHT22;5001;51.674;7.868;2023-11-21T14:12:02;8.30;99.90
9925;DHT22;5001;51.674;7.868;2023-11-21T14:14:33;8.30;99.90
9925;DHT22;5001;51.674;7.868;2023-11-21T14:17:01;8.40;99.90
9925;DHT22;5001;51.674;7.868;2023-11-21T14:19:33;8.30;99.90
9925;DHT22;5001;51.674;7.868;2023-11-21T14:22:03;8.30;99.90
9925;DHT22;5001;51.674;7.868;2023-11-21T14:24:30;8.30;99.90
9925;DHT22;5001;51.674;7.868;2023-11-21T14:26:59;8.20;99.90
9925;DHT22;5001;51.674;7.868;2023-11-21T14:29:26;8.10;99.90
9925;DHT22;5001;51.674;7.868;2023-11-21T14:31:54;8.10;99.90
9925;DHT22;5001;51.674;7.868;2023-11-21T14:34:24;8.10;99.90
9925;DHT22;5001;51.674;7.868;2023-11-21T14:36:53;8.10;99.90
9925;DHT22;5001;51.674;7.868;2023-11-21T14:39:21;8.00;99.90
9925;DHT22;5001;51.674;7.868;2023-11-21T14:41:52;8.00;99.90
9925;DHT22;5001;51.674;7.868;2023-11-21T14:44:26;7.90;99.90
9925;DHT22;5001;51.674;7.868;2023-11-21T14:46:56;7.90;99.90
9925;DHT22;5001;51.674;7.868;2023-11-21T14:49:25;7.90;99.90
9925;DHT22;5001;51.674;7.868;2023-11-21T14:51:55;7.90;99.90
9925;DHT22;5001;51.674;7.868;2023-11-21T14:54:22;7.90;99.90
9925;DHT22;5001;51.674;7.868;2023-11-21T14:57:10;7.90;99.90
9925;DHT22;5001;51.674;7.868;2023-11-21T14:59:45;8.00;99.90
9925;DHT22;5001;51.674;7.868;2023-11-21T15:02:24;7.90;99.90
9925;DHT22;5001;51.674;7.868;2023-11-21T15:05:15;7.80;99.90
9925;DHT22;5001;51.674;7.868;2023-11-21T15:07:43;7.80;99.90
9925;DHT22;5001;51.674;7.868;2023-11-21T15:10:13;7.80;99.90
9925;DHT22;5001;51.674;7.868;2023-11-21T15:12:43;7.80;99.90
9925;DHT22;5001;51.674;7.868;2023-11-21T15:15:11;7.80;99.90
9925;DHT22;5001;51.674;7.868;2023-11-21T15:17:41;7.80;99.90
9925;DHT22;5001;51.674;7.868;2023-11-21T15:20:10;7.70;99.90
9925;DHT22;5001;51.674;7.868;2023-11-21T15:22:42;7.80;99.90
9925;DHT22;5001;51.674;7.868;2023-11-21T15:25:09;7.80;99.90
9925;DHT22;5001;51.674;7.868;2023-11-21T15:27:37;7.70;99.90
9925;DHT22;5001;51.674;7.868;2023-11-21T15:30:05;7.70;99.90
9925;DHT22;5001;51.674;7.868;2023-11-21T15:32:32;7.60;99.90
9925;DHT22;5001;51.674;7.868;2023-11-21T15:34:59;7.70;99.90
9925;DHT22;5001;51.674;7.868;2023-11-21T15:37:26;7.60;99.90
9925;DHT22;5001;51.674;7.868;2023-11-21T15:39:55;7.60;99.90
9925;DHT22;5001;51.674;7.868;2023-11-21T15:42:22;7.60;99.90
9925;DHT22;5001;51.674;7.868;2023-11-21T15:44:50;7.60;99.90
9925;DHT22;5001;51.674;7.868;2023-11-21T15:47:18;7.60;99.90
9925;DHT22;5001;51.674;7.868;2023-11-21T15:49:45;7.50;99.90
9925;DHT22;5001;51.674;7.868;2023-11-21T15:52:16;7.60;99.90
9925;DHT22;5001;51.674;7.868;2023-11-21T15:54:44;7.60;99.90
9925;DHT22;5001;51.674;7.868;2023-11-21T15:57:13;7.60;99.90
9925;DHT22;5001;51.674;7.868;2023-11-21T15:59:41;7.50;99.90
9925;DHT22;5001;51.674;7.868;2023-11-21T16:02:09;7.60;99.90
9925;DHT22;5001;51.674;7.868;2023-11-21T16:04:39;7.60;99.90
9925;DHT22;5001;51.674;7.868;2023-11-21T16:07:06;7.50;99.90
9925;DHT22;5001;51.674;7.868;2023-11-21T16:09:34;7.50;99.90
9925;DHT22;5001;51.674;7.868;2023-11-21T16:12:02;7.50;99.90
9925;DHT22;5001;51.674;7.868;2023-11-21T16:14:34;7.50;99.90
9925;DHT22;5001;51.674;7.868;2023-11-21T16:17:14;7.50;99.90
9925;DHT22;5001;51.674;7.868;2023-11-21T16:19:44;7.50;99.90
9925;DHT22;5001;51.674;7.868;2023-11-21T16:22:12;7.50;99.90
9925;DHT22;5001;51.674;7.868;2023-11-21T16:24:39;7.40;99.90
9925;DHT22;5001;51.674;7.868;2023-11-21T16:27:06;7.40;99.90
9925;DHT22;5001;51.674;7.868;2023-11-21T16:29:37;7.40;99.90
9925;DHT22;5001;51.674;7.868;2023-11-21T16:32:05;7.40;99.90
9925;DHT22;5001;51.674;7.868;2023-11-21T16:34:33;7.40;99.90
9925;DHT22;5001;51.674;7.868;2023-11-21T16:37:02;7.30;99.90
9925;DHT22;5001;51.674;7.868;2023-11-21T16:39:30;7.30;99.90
9925;DHT22;5001;51.674;7.868;2023-11-21T16:41:57;7.30;99.90
9925;DHT22;5001;51.674;7.868;2023-11-21T16:44:28;7.30;99.90
9925;DHT22;5001;51.674;7.868;2023-11-21T16:46:55;7.30;99.90
9925;DHT22;5001;51.674;7.868;2023-11-21T16:49:32;7.20;99.90
9925;DHT22;5001;51.674;7.868;2023-11-21T16:52:00;7.20;99.90
9925;DHT22;5001;51.674;7.868;2023-11-21T16:54:30;7.20;99.90
9925;DHT22;5001;51.674;7.868;2023-11-21T16:56:57;7.10;99.90
9925;DHT22;5001;51.674;7.868;2023-11-21T16:59:24;7.10;99.90